createdAt,value
2023-02-05T00:02:00.897Z,22.48
2023-02-05T00:04:30.672Z,22.48
2023-02-05T00:06:58.884Z,22.47
2023-02-05T00:09:28.556Z,22.45
2023-02-05T00:11:56.809Z,22.44
2023-02-05T00:14:25.350Z,22.42
2023-02-05T00:16:53.796Z,22.40
2023-02-05T00:19:22.219Z,22.40
2023-02-05T00:21:51.907Z,22.40
2023-02-05T00:24:20.274Z,22.41
2023-02-05T00:26:48.534Z,22.40
2023-02-05T00:29:16.757Z,22.40
2023-02-05T00:31:45.189Z,22.39
2023-02-05T00:34:13.664Z,22.38
2023-02-05T00:36:41.938Z,22.39
2023-02-05T00:39:14.358Z,22.38
2023-02-05T00:41:42.616Z,22.38
2023-02-05T00:44:10.872Z,22.36
2023-02-05T00:46:39.395Z,22.37
2023-02-05T00:49:08.293Z,22.36
2023-02-05T00:51:36.473Z,22.37
2023-02-05T00:54:04.853Z,22.36
2023-02-05T00:56:34.624Z,22.36
2023-02-05T00:59:03.273Z,22.35
2023-02-05T01:01:31.828Z,22.35
2023-02-05T01:04:00.213Z,22.34
2023-02-05T01:06:28.461Z,22.34
2023-02-05T01:08:57.065Z,22.32
2023-02-05T01:11:25.532Z,22.33
2023-02-05T01:13:55.162Z,22.33
2023-02-05T01:16:23.494Z,22.32
2023-02-05T01:18:53.180Z,22.31
2023-02-05T01:21:21.499Z,22.31
2023-02-05T01:23:49.976Z,22.30
2023-02-05T01:26:18.382Z,22.30
2023-02-05T01:28:47.204Z,22.29
2023-02-05T01:31:17.288Z,22.26
2023-02-05T01:33:45.789Z,22.24
2023-02-05T01:36:14.178Z,22.26
2023-02-05T01:38:42.527Z,22.25
2023-02-05T01:41:12.354Z,22.24
2023-02-05T01:43:40.769Z,22.24
2023-02-05T01:46:25.625Z,22.22
2023-02-05T01:48:55.092Z,22.22
2023-02-05T01:51:23.218Z,22.21
2023-02-05T01:53:51.335Z,22.21
2023-02-05T01:56:22.292Z,22.21
2023-02-05T01:58:52.760Z,22.20
2023-02-05T02:01:20.959Z,22.20
2023-02-05T02:03:50.870Z,22.18
2023-02-05T02:06:19.109Z,22.17
2023-02-05T02:08:47.238Z,22.17
2023-02-05T02:11:17.247Z,22.18
2023-02-05T02:13:45.678Z,22.18
2023-02-05T02:16:13.804Z,22.18
2023-02-05T02:18:42.388Z,22.18
2023-02-05T02:21:45.828Z,22.18
2023-02-05T02:24:35.636Z,22.19
2023-02-05T02:27:12.806Z,22.18
2023-02-05T02:29:44.357Z,22.18
2023-02-05T02:32:15.601Z,22.18
2023-02-05T02:34:46.285Z,22.18
2023-02-05T02:37:16.174Z,22.17
2023-02-05T02:39:46.031Z,22.18
2023-02-05T02:42:16.512Z,22.17
2023-02-05T02:44:47.884Z,22.16
2023-02-05T02:47:17.645Z,22.13
2023-02-05T02:49:48.450Z,22.12
2023-02-05T02:52:17.801Z,22.12
2023-02-05T02:54:47.894Z,22.13
2023-02-05T02:57:17.981Z,22.13
2023-02-05T02:59:47.559Z,22.13
2023-02-05T03:02:17.024Z,22.14
2023-02-05T03:04:46.898Z,22.14
2023-02-05T03:07:17.621Z,22.13
2023-02-05T03:09:50.260Z,22.13
2023-02-05T03:12:19.714Z,22.15
2023-02-05T03:14:49.170Z,22.12
2023-02-05T03:17:19.808Z,22.13
2023-02-05T03:19:51.924Z,22.12
2023-02-05T03:22:20.300Z,22.11
2023-02-05T03:24:48.348Z,22.12
2023-02-05T03:27:16.531Z,22.12
2023-02-05T03:29:45.696Z,22.12
2023-02-05T03:32:25.902Z,22.11
2023-02-05T03:35:00.699Z,22.11
2023-02-05T03:37:34.056Z,22.09
2023-02-05T03:40:08.342Z,22.09
2023-02-05T03:42:41.238Z,22.10
2023-02-05T03:45:23.016Z,22.10
2023-02-05T03:48:05.660Z,22.09
2023-02-05T03:50:37.292Z,22.08
2023-02-05T03:53:07.908Z,22.09
2023-02-05T03:55:39.416Z,22.08
2023-02-05T03:58:09.984Z,22.08
2023-02-05T04:00:38.177Z,22.07
2023-02-05T04:03:07.653Z,22.07
2023-02-05T04:05:37.457Z,22.06
2023-02-05T04:08:06.289Z,22.07
2023-02-05T04:10:41.329Z,22.07
2023-02-05T04:13:10.518Z,22.04
2023-02-05T04:15:40.489Z,22.00
2023-02-05T04:18:12.430Z,22.01
2023-02-05T04:20:40.738Z,22.00
2023-02-05T04:23:10.414Z,22.02
2023-02-05T04:25:40.158Z,22.01
2023-02-05T04:28:11.527Z,22.00
2023-02-05T04:30:40.643Z,22.00
2023-02-05T04:33:13.160Z,22.00
2023-02-05T04:35:41.989Z,22.00
2023-02-05T04:38:10.533Z,21.99
2023-02-05T04:40:38.889Z,21.99
2023-02-05T04:43:07.217Z,21.99
2023-02-05T04:45:37.062Z,21.97
2023-02-05T04:48:06.761Z,21.97
2023-02-05T04:50:36.416Z,21.94
2023-02-05T04:53:04.643Z,21.92
2023-02-05T04:55:33.308Z,21.89
2023-02-05T04:58:01.597Z,21.87
2023-02-05T05:00:29.662Z,21.87
2023-02-05T05:02:58.253Z,21.84
2023-02-05T05:05:26.285Z,21.83
2023-02-05T05:07:55.804Z,21.81
2023-02-05T05:10:23.870Z,21.79
2023-02-05T05:12:53.231Z,21.79
2023-02-05T05:15:21.368Z,21.77
2023-02-05T05:17:49.561Z,21.77
2023-02-05T05:20:18.280Z,21.75
2023-02-05T05:22:46.377Z,21.75
2023-02-05T05:25:16.049Z,21.75
2023-02-05T05:27:44.240Z,21.73
2023-02-05T05:30:13.560Z,21.73
2023-02-05T05:32:41.674Z,21.71
2023-02-05T05:35:09.974Z,21.70
2023-02-05T05:37:38.098Z,21.71
2023-02-05T05:40:24.339Z,21.68
2023-02-05T05:43:11.136Z,21.68
2023-02-05T05:45:39.277Z,21.67
2023-02-05T05:48:09.097Z,21.68
2023-02-05T05:50:37.282Z,21.67
2023-02-05T05:53:05.421Z,21.66
2023-02-05T05:55:33.811Z,21.65
2023-02-05T05:58:03.361Z,21.64
2023-02-05T06:00:31.519Z,21.64
2023-02-05T06:02:59.688Z,21.63
2023-02-05T06:05:27.781Z,21.63
2023-02-05T06:07:55.829Z,21.62
2023-02-05T06:10:24.344Z,21.62
2023-02-05T06:12:53.156Z,21.61
2023-02-05T06:15:23.180Z,21.61
2023-02-05T06:17:51.371Z,21.61
2023-02-05T06:20:19.909Z,21.60
2023-02-05T06:22:48.262Z,21.59
2023-02-05T06:25:17.260Z,21.58
2023-02-05T06:27:48.302Z,21.59
2023-02-05T06:30:16.663Z,21.60
2023-02-05T06:32:46.531Z,21.60
2023-02-05T06:35:15.012Z,21.58
2023-02-05T06:37:47.537Z,21.58
2023-02-05T06:40:18.357Z,21.59
2023-02-05T06:42:46.833Z,21.58
2023-02-05T06:45:16.024Z,21.57
2023-02-05T06:47:46.216Z,21.59
2023-02-05T06:50:14.553Z,21.61
2023-02-05T06:52:42.677Z,21.63
2023-02-05T06:55:10.897Z,21.65
2023-02-05T06:57:39.017Z,21.65
2023-02-05T07:00:08.247Z,21.67
2023-02-05T07:02:36.421Z,21.66
2023-02-05T07:05:05.987Z,21.66
2023-02-05T07:07:34.465Z,21.67
2023-02-05T07:10:02.498Z,21.67
2023-02-05T07:12:30.718Z,21.68
2023-02-05T07:14:58.803Z,21.71
2023-02-05T07:17:27.176Z,21.77
2023-02-05T07:19:55.337Z,21.80
2023-02-05T07:22:24.897Z,21.82
2023-02-05T07:24:53.085Z,21.84
2023-02-05T07:27:21.148Z,21.86
2023-02-05T07:29:49.392Z,21.87
2023-02-05T07:32:17.620Z,21.88
2023-02-05T07:34:45.764Z,21.88
2023-02-05T07:37:14.349Z,21.88
2023-02-05T07:39:43.819Z,21.88
2023-02-05T07:42:12.339Z,21.86
2023-02-05T07:44:52.123Z,21.86
2023-02-05T07:47:20.260Z,21.86
2023-02-05T07:49:48.355Z,21.85
2023-02-05T07:52:16.413Z,21.86
2023-02-05T07:54:45.863Z,21.87
2023-02-05T07:57:13.965Z,21.88
2023-02-05T07:59:42.005Z,21.87
2023-02-05T08:02:10.728Z,21.87
2023-02-05T08:04:38.761Z,21.86
2023-02-05T08:07:06.881Z,21.85
2023-02-05T08:09:34.934Z,21.84
2023-02-05T08:12:04.602Z,21.83
2023-02-05T08:14:32.835Z,21.85
2023-02-05T08:17:01.979Z,21.84
2023-02-05T08:19:30.260Z,21.84
2023-02-05T08:21:58.847Z,21.83
2023-02-05T08:24:27.366Z,21.83
2023-02-05T08:26:55.448Z,21.84
2023-02-05T08:29:26.506Z,21.84
2023-02-05T08:31:54.815Z,21.87
2023-02-05T08:34:22.869Z,21.89
2023-02-05T08:36:50.992Z,21.90
2023-02-05T08:39:19.008Z,21.91
2023-02-05T08:41:47.121Z,21.92
2023-02-05T08:44:15.176Z,21.93
2023-02-05T08:46:50.117Z,21.92
2023-02-05T08:49:18.897Z,21.92
2023-02-05T08:51:46.948Z,21.90
2023-02-05T08:54:15.529Z,21.87
2023-02-05T08:56:43.855Z,21.85
2023-02-05T08:59:12.308Z,21.87
2023-02-05T09:01:41.598Z,21.90
2023-02-05T09:04:12.605Z,21.92
2023-02-05T09:06:43.832Z,21.93
2023-02-05T09:09:12.159Z,21.94
2023-02-05T09:11:40.513Z,21.94
2023-02-05T09:14:08.722Z,21.95
2023-02-05T09:16:36.967Z,21.97
2023-02-05T09:19:05.442Z,21.98
2023-02-05T09:21:35.102Z,21.98
2023-02-05T09:24:03.560Z,21.99
2023-02-05T09:26:31.804Z,21.98
2023-02-05T09:29:00.048Z,21.98
2023-02-05T09:31:28.632Z,21.98
2023-02-05T09:33:57.444Z,21.99
2023-02-05T09:36:27.249Z,21.99
2023-02-05T09:39:13.472Z,22.00
2023-02-05T09:41:48.471Z,22.00
2023-02-05T09:44:18.804Z,22.02
2023-02-05T09:46:50.458Z,22.02
2023-02-05T09:49:19.712Z,22.03
2023-02-05T09:51:49.497Z,22.06
2023-02-05T09:54:20.829Z,22.07
2023-02-05T09:56:50.654Z,22.10
2023-02-05T09:59:21.064Z,22.10
2023-02-05T10:01:51.231Z,22.10
2023-02-05T10:04:19.627Z,22.11
2023-02-05T10:07:01.427Z,22.12
2023-02-05T10:09:41.210Z,22.11
2023-02-05T10:12:16.087Z,22.11
2023-02-05T10:14:49.896Z,22.08
2023-02-05T10:17:29.569Z,22.08
2023-02-05T10:20:15.657Z,22.08
2023-02-05T10:22:48.751Z,22.09
2023-02-05T10:25:36.504Z,22.09
2023-02-05T10:28:07.260Z,22.09
2023-02-05T10:30:38.140Z,22.10
2023-02-05T10:33:08.338Z,22.11
2023-02-05T10:35:42.458Z,22.12
2023-02-05T10:38:12.418Z,22.14
2023-02-05T10:40:44.117Z,22.15
2023-02-05T10:43:19.071Z,22.15
2023-02-05T10:45:47.152Z,22.16
2023-02-05T10:48:25.037Z,22.17
2023-02-05T10:50:56.512Z,22.17
2023-02-05T10:53:26.319Z,22.17
2023-02-05T10:55:55.762Z,22.18
2023-02-05T10:58:42.423Z,22.19
2023-02-05T11:01:15.005Z,22.19
2023-02-05T11:03:50.551Z,22.20
2023-02-05T11:06:18.693Z,22.22
2023-02-05T11:08:47.237Z,22.23
2023-02-05T11:11:23.315Z,22.24
2023-02-05T11:13:54.053Z,22.24
2023-02-05T11:16:22.241Z,22.25
2023-02-05T11:18:57.490Z,22.25
2023-02-05T11:21:25.684Z,22.26
2023-02-05T11:23:57.265Z,22.27
2023-02-05T11:26:28.148Z,22.27
2023-02-05T11:28:56.222Z,22.28
2023-02-05T11:31:26.532Z,22.29
2023-02-05T11:34:10.582Z,22.30
2023-02-05T11:36:39.342Z,22.30
2023-02-05T11:39:07.730Z,22.30
2023-02-05T11:41:49.246Z,22.31
2023-02-05T11:44:19.425Z,22.31
2023-02-05T11:46:47.642Z,22.32
2023-02-05T11:49:21.936Z,22.33
2023-02-05T11:51:54.220Z,22.33
2023-02-05T11:54:23.500Z,22.33
2023-02-05T11:57:03.646Z,22.34
2023-02-05T11:59:31.960Z,22.33
2023-02-05T12:02:28.523Z,22.32
2023-02-05T12:04:59.008Z,22.31
2023-02-05T12:07:27.203Z,22.30
2023-02-05T12:09:59.367Z,22.32
2023-02-05T12:12:31.824Z,22.33
2023-02-05T12:15:08.594Z,22.34
2023-02-05T12:17:41.428Z,22.34
2023-02-05T12:20:17.755Z,22.35
2023-02-05T12:23:07.659Z,22.36
2023-02-05T12:25:37.927Z,22.37
2023-02-05T12:28:18.047Z,22.39
2023-02-05T12:30:52.485Z,22.39
2023-02-05T12:33:29.976Z,22.38
2023-02-05T12:36:03.155Z,22.40
2023-02-05T12:38:39.348Z,22.40
2023-02-05T12:41:13.831Z,22.39
2023-02-05T12:43:45.229Z,22.40
2023-02-05T12:46:28.832Z,22.39
2023-02-05T12:49:06.386Z,22.42
2023-02-05T12:51:44.461Z,22.42
2023-02-05T12:54:25.888Z,22.44
2023-02-05T12:56:57.223Z,22.45
2023-02-05T12:59:32.976Z,22.46
2023-02-05T13:02:02.758Z,22.47
2023-02-05T13:04:33.808Z,22.48
2023-02-05T13:07:08.521Z,22.48
2023-02-05T13:09:40.304Z,22.49
2023-02-05T13:12:09.939Z,22.42
2023-02-05T13:14:40.866Z,22.41
2023-02-05T13:17:18.547Z,22.43
2023-02-05T13:19:48.440Z,22.47
2023-02-05T13:22:35.693Z,22.47
2023-02-05T13:25:30.071Z,22.49
2023-02-05T13:28:31.399Z,22.52
2023-02-05T13:31:01.365Z,22.54
2023-02-05T13:33:29.739Z,22.55
2023-02-05T13:36:01.728Z,22.55
2023-02-05T13:38:40.106Z,22.56
2023-02-05T13:41:26.766Z,22.55
2023-02-05T13:44:20.309Z,22.57
2023-02-05T13:47:24.065Z,22.58
2023-02-05T13:50:21.985Z,22.58
2023-02-05T13:53:23.146Z,22.58
2023-02-05T13:56:18.797Z,22.59
2023-02-05T13:58:47.238Z,22.58
2023-02-05T14:01:18.025Z,22.59
2023-02-05T14:03:56.303Z,22.59
2023-02-05T14:06:31.163Z,22.59
2023-02-05T14:09:04.061Z,22.60
2023-02-05T14:11:44.754Z,22.61
2023-02-05T14:14:32.010Z,22.64
2023-02-05T14:17:00.494Z,22.64
2023-02-05T14:19:44.253Z,22.63
2023-02-05T14:22:14.388Z,22.62
2023-02-05T14:24:49.858Z,22.64
2023-02-05T14:27:47.017Z,22.66
2023-02-05T14:30:47.596Z,22.69
2023-02-05T14:33:39.186Z,22.70
2023-02-05T14:36:33.276Z,22.70
2023-02-05T14:39:04.511Z,22.70
2023-02-05T14:41:36.084Z,22.73
2023-02-05T14:44:05.025Z,22.74
2023-02-05T14:46:35.589Z,22.75
2023-02-05T14:49:05.208Z,22.78
2023-02-05T14:51:40.340Z,22.80
2023-02-05T14:54:15.795Z,22.72
2023-02-05T14:56:46.878Z,22.69
2023-02-05T14:59:21.523Z,22.67
2023-02-05T15:01:54.469Z,22.65
2023-02-05T15:04:28.628Z,22.62
2023-02-05T15:06:57.368Z,22.60
2023-02-05T15:09:38.411Z,22.61
2023-02-05T15:12:22.320Z,22.61
2023-02-05T15:14:53.828Z,22.65
2023-02-05T15:17:44.884Z,22.64
2023-02-05T15:20:20.110Z,22.66
2023-02-05T15:22:50.981Z,22.67
2023-02-05T15:25:29.630Z,22.66
2023-02-05T15:27:59.207Z,22.66
2023-02-05T15:30:28.889Z,22.67
2023-02-05T15:33:00.396Z,22.66
2023-02-05T15:35:29.996Z,22.66
2023-02-05T15:37:59.996Z,22.65
2023-02-05T15:40:31.687Z,22.64
2023-02-05T15:43:01.241Z,22.64
2023-02-05T15:45:30.335Z,22.64
2023-02-05T15:48:00.384Z,22.63
2023-02-05T15:50:28.675Z,22.63
2023-02-05T15:52:57.073Z,22.62
2023-02-05T15:55:26.887Z,22.60
2023-02-05T15:57:57.587Z,22.60
2023-02-05T16:00:28.048Z,22.61
2023-02-05T16:02:57.512Z,22.61
2023-02-05T16:05:26.399Z,22.62
2023-02-05T16:07:58.265Z,22.60
2023-02-05T16:10:27.559Z,22.61
2023-02-05T16:13:01.247Z,22.61
2023-02-05T16:15:31.822Z,22.61
2023-02-05T16:18:00.039Z,22.59
2023-02-05T16:20:29.219Z,22.59
2023-02-05T16:22:58.205Z,22.61
2023-02-05T16:25:38.812Z,22.62
2023-02-05T16:28:19.308Z,22.60
2023-02-05T16:30:47.769Z,22.58
2023-02-05T16:33:22.314Z,22.58
2023-02-05T16:35:50.668Z,22.58
2023-02-05T16:38:20.009Z,22.58
2023-02-05T16:40:49.669Z,22.58
2023-02-05T16:43:21.900Z,22.56
2023-02-05T16:46:21.836Z,22.56
2023-02-05T16:48:51.075Z,22.56
2023-02-05T16:51:31.813Z,22.56
2023-02-05T16:54:00.846Z,22.57
2023-02-05T16:56:29.961Z,22.59
2023-02-05T16:59:02.625Z,22.58
2023-02-05T17:01:32.684Z,22.58
2023-02-05T17:04:00.886Z,22.57
2023-02-05T17:06:33.737Z,22.58
2023-02-05T17:09:01.954Z,22.58
2023-02-05T17:11:35.387Z,22.58
2023-02-05T17:14:23.408Z,22.58
2023-02-05T17:16:55.645Z,22.61
2023-02-05T17:19:25.215Z,22.61
2023-02-05T17:22:23.280Z,22.60
2023-02-05T17:24:52.106Z,22.61
2023-02-05T17:27:23.336Z,22.65
2023-02-05T17:29:54.304Z,22.66
2023-02-05T17:32:22.747Z,22.66
2023-02-05T17:34:51.025Z,22.67
2023-02-05T17:37:19.481Z,22.69
2023-02-05T17:39:47.722Z,22.70
2023-02-05T17:42:22.838Z,22.70
2023-02-05T17:44:53.264Z,22.70
2023-02-05T17:47:21.476Z,22.70
2023-02-05T17:49:49.712Z,22.71
2023-02-05T17:52:18.223Z,22.70
2023-02-05T17:54:46.625Z,22.73
2023-02-05T17:57:17.216Z,22.74
2023-02-05T17:59:48.262Z,22.74
2023-02-05T18:02:18.105Z,22.75
2023-02-05T18:04:47.006Z,22.73
2023-02-05T18:07:19.934Z,22.68
2023-02-05T18:09:48.120Z,22.68
2023-02-05T18:12:16.310Z,22.70
2023-02-05T18:14:44.480Z,22.72
2023-02-05T18:17:12.649Z,22.74
2023-02-05T18:19:42.304Z,22.75
2023-02-05T18:22:10.629Z,22.77
2023-02-05T18:24:39.307Z,22.77
2023-02-05T18:27:08.685Z,22.79
2023-02-05T18:29:36.986Z,22.79
2023-02-05T18:32:05.127Z,22.83
2023-02-05T18:34:33.378Z,22.86
2023-02-05T18:37:02.983Z,22.88
2023-02-05T18:39:31.560Z,22.89
2023-02-05T18:42:00.157Z,22.89
2023-02-05T18:44:28.691Z,22.92
2023-02-05T18:46:56.813Z,22.90
2023-02-05T18:49:25.060Z,22.87
2023-02-05T18:51:53.258Z,22.83
2023-02-05T18:54:22.776Z,22.81
2023-02-05T18:56:51.885Z,22.79
2023-02-05T18:59:21.308Z,22.80
2023-02-05T19:01:49.601Z,22.79
2023-02-05T19:04:18.706Z,22.81
2023-02-05T19:06:50.713Z,22.81
2023-02-05T19:09:19.566Z,22.80
2023-02-05T19:11:49.625Z,22.80
2023-02-05T19:14:18.948Z,22.81
2023-02-05T19:16:47.331Z,22.81
2023-02-05T19:19:16.371Z,22.81
2023-02-05T19:21:45.101Z,22.80
2023-02-05T19:24:14.386Z,22.79
2023-02-05T19:26:43.589Z,22.76
2023-02-05T19:29:15.505Z,22.77
2023-02-05T19:31:43.957Z,22.75
2023-02-05T19:34:12.183Z,22.73
2023-02-05T19:36:40.474Z,22.72
2023-02-05T19:39:10.056Z,22.72
2023-02-05T19:41:38.377Z,22.72
2023-02-05T19:44:07.717Z,22.72
2023-02-05T19:46:38.333Z,22.70
2023-02-05T19:49:07.376Z,22.70
2023-02-05T19:51:35.516Z,22.69
2023-02-05T19:54:04.294Z,22.70
2023-02-05T19:56:35.737Z,22.68
2023-02-05T19:59:04.118Z,22.69
2023-02-05T20:01:33.581Z,22.70
2023-02-05T20:04:08.071Z,22.71
2023-02-05T20:06:36.352Z,22.70
2023-02-05T20:09:05.879Z,22.69
2023-02-05T20:11:34.037Z,22.68
2023-02-05T20:14:02.251Z,22.67
2023-02-05T20:16:30.592Z,22.67
2023-02-05T20:18:59.724Z,22.68
2023-02-05T20:21:30.005Z,22.67
2023-02-05T20:23:58.264Z,22.66
2023-02-05T20:26:26.620Z,22.66
2023-02-05T20:29:13.132Z,22.67
2023-02-05T20:31:43.560Z,22.66
2023-02-05T20:34:18.184Z,22.66
2023-02-05T20:36:48.425Z,22.66
2023-02-05T20:39:18.035Z,22.66
2023-02-05T20:41:46.497Z,22.65
2023-02-05T20:44:14.617Z,22.66
2023-02-05T20:46:42.892Z,22.65
2023-02-05T20:49:11.052Z,22.65
2023-02-05T20:51:39.330Z,22.65
2023-02-05T20:54:09.337Z,22.65
2023-02-05T20:56:37.604Z,22.64
2023-02-05T20:59:07.134Z,22.63
2023-02-05T21:01:36.563Z,22.62
2023-02-05T21:04:05.416Z,22.62
2023-02-05T21:06:35.136Z,22.62
2023-02-05T21:09:03.494Z,22.62
2023-02-05T21:11:33.108Z,22.62
2023-02-05T21:14:03.467Z,22.64
2023-02-05T21:16:32.299Z,22.64
2023-02-05T21:19:00.490Z,22.63
2023-02-05T21:21:29.964Z,22.63
2023-02-05T21:23:59.130Z,22.63
2023-02-05T21:26:28.169Z,22.64
2023-02-05T21:28:58.904Z,22.66
2023-02-05T21:31:33.756Z,22.65
2023-02-05T21:34:02.283Z,22.64
2023-02-05T21:36:30.609Z,22.64
2023-02-05T21:38:58.825Z,22.65
2023-02-05T21:41:26.968Z,22.64
2023-02-05T21:43:57.558Z,22.63
2023-02-05T21:46:26.268Z,22.61
2023-02-05T21:48:55.936Z,22.61
2023-02-05T21:51:26.596Z,22.60
2023-02-05T21:53:57.319Z,22.60
2023-02-05T21:56:25.985Z,22.59
2023-02-05T21:58:54.254Z,22.60
2023-02-05T22:01:24.628Z,22.61
2023-02-05T22:03:53.837Z,22.61
2023-02-05T22:06:23.057Z,22.61
2023-02-05T22:08:51.414Z,22.61
2023-02-05T22:11:20.150Z,22.61
2023-02-05T22:13:49.361Z,22.61
2023-02-05T22:16:18.572Z,22.62
2023-02-05T22:18:48.249Z,22.63
2023-02-05T22:21:17.890Z,22.60
2023-02-05T22:23:48.991Z,22.62
2023-02-05T22:26:17.811Z,22.61
2023-02-05T22:28:46.265Z,22.60
2023-02-05T22:31:15.931Z,22.59
2023-02-05T22:33:45.154Z,22.58
2023-02-05T22:36:19.083Z,22.58
2023-02-05T22:38:47.437Z,22.58
2023-02-05T22:41:16.812Z,22.57
2023-02-05T22:43:44.996Z,22.56
2023-02-05T22:46:14.272Z,22.57
2023-02-05T22:48:43.280Z,22.56
2023-02-05T22:51:13.109Z,22.54
2023-02-05T22:53:42.779Z,22.54
2023-02-05T22:56:12.802Z,22.52
2023-02-05T22:58:42.096Z,22.47
2023-02-05T23:01:10.650Z,22.47
2023-02-05T23:03:39.165Z,22.45
2023-02-05T23:06:11.485Z,22.45
2023-02-05T23:08:39.806Z,22.44
2023-02-05T23:11:10.708Z,22.44
2023-02-05T23:13:38.908Z,22.45
2023-02-05T23:16:08.837Z,22.44
2023-02-05T23:18:37.237Z,22.43
2023-02-05T23:21:08.629Z,22.45
2023-02-05T23:23:36.865Z,22.44
2023-02-05T23:26:11.105Z,22.44
2023-02-05T23:28:39.444Z,22.43
2023-02-05T23:31:07.875Z,22.43
2023-02-05T23:33:36.253Z,22.42
2023-02-05T23:36:05.054Z,22.42
2023-02-05T23:38:33.246Z,22.41
2023-02-05T23:41:01.553Z,22.40
2023-02-05T23:43:32.603Z,22.40
2023-02-05T23:46:00.966Z,22.39
2023-02-05T23:48:29.226Z,22.40
2023-02-05T23:50:59.051Z,22.39
2023-02-05T23:53:27.404Z,22.38
2023-02-05T23:55:55.699Z,22.38
2023-02-05T23:58:26.150Z,22.37
